createdAt,value
2022-12-03T00:00:31.424Z,11.27
2022-12-03T00:02:58.253Z,10.95
2022-12-03T00:05:25.095Z,10.93
2022-12-03T00:07:51.964Z,11.30
2022-12-03T00:10:19.103Z,11.13
2022-12-03T00:12:45.882Z,10.73
2022-12-03T00:15:12.947Z,12.35
2022-12-03T00:17:39.751Z,11.88
2022-12-03T00:20:18.248Z,11.25
2022-12-03T00:22:45.084Z,11.27
2022-12-03T00:25:12.035Z,11.05
2022-12-03T00:27:38.788Z,11.95
2022-12-03T00:30:06.492Z,12.07
2022-12-03T00:32:33.278Z,11.43
2022-12-03T00:35:00.074Z,11.20
2022-12-03T00:37:26.845Z,9.50
2022-12-03T00:39:53.623Z,10.63
2022-12-03T00:42:20.418Z,10.10
2022-12-03T00:44:47.123Z,10.45
2022-12-03T00:47:13.890Z,10.32
2022-12-03T00:49:41.355Z,9.63
2022-12-03T00:52:08.104Z,8.27
2022-12-03T00:54:34.858Z,9.63
2022-12-03T00:57:01.625Z,8.63
2022-12-03T00:59:28.334Z,7.93
2022-12-03T01:01:55.286Z,8.88
2022-12-03T01:04:22.395Z,8.60
2022-12-03T01:06:49.227Z,9.20
2022-12-03T01:09:15.957Z,8.13
2022-12-03T01:11:42.712Z,7.43
2022-12-03T01:14:17.561Z,8.10
2022-12-03T01:16:44.362Z,8.10
2022-12-03T01:19:15.812Z,7.88
2022-12-03T01:21:44.014Z,8.82
2022-12-03T01:24:11.116Z,8.05
2022-12-03T01:26:38.429Z,7.13
2022-12-03T01:29:05.817Z,7.95
2022-12-03T01:31:51.130Z,7.35
2022-12-03T01:34:17.857Z,8.13
2022-12-03T01:36:44.689Z,8.05
2022-12-03T01:39:11.489Z,8.20
2022-12-03T01:41:39.086Z,7.93
2022-12-03T01:44:18.104Z,9.05
2022-12-03T01:46:46.209Z,9.32
2022-12-03T01:49:27.342Z,8.45
2022-12-03T01:51:55.076Z,8.45
2022-12-03T01:54:26.901Z,9.25
2022-12-03T01:56:54.493Z,8.27
2022-12-03T01:59:25.820Z,7.80
2022-12-03T02:01:52.568Z,9.13
2022-12-03T02:04:21.862Z,8.68
2022-12-03T02:06:48.722Z,8.93
2022-12-03T02:09:15.421Z,9.15
2022-12-03T02:11:48.124Z,9.43
2022-12-03T02:14:20.097Z,9.80
2022-12-03T02:16:47.228Z,9.37
2022-12-03T02:19:26.712Z,9.68
2022-12-03T02:22:29.003Z,12.50
2022-12-03T02:25:18.528Z,10.13
2022-12-03T02:27:46.173Z,9.55
2022-12-03T02:30:15.137Z,9.15
2022-12-03T02:32:42.277Z,9.85
2022-12-03T02:35:34.284Z,10.25
2022-12-03T02:38:09.716Z,10.48
2022-12-03T02:40:36.915Z,9.45
2022-12-03T02:43:04.689Z,10.55
2022-12-03T02:45:38.268Z,11.82
2022-12-03T02:48:21.015Z,10.82
2022-12-03T02:51:00.213Z,10.88
2022-12-03T02:53:35.391Z,11.77
2022-12-03T02:56:03.307Z,11.50
2022-12-03T02:58:32.631Z,11.50
2022-12-03T03:01:01.101Z,12.00
2022-12-03T03:03:29.675Z,12.35
2022-12-03T03:05:57.084Z,12.50
2022-12-03T03:08:25.353Z,12.32
2022-12-03T03:10:52.752Z,12.30
2022-12-03T03:13:20.313Z,13.00
2022-12-03T03:15:47.688Z,13.35
2022-12-03T03:18:15.374Z,13.95
2022-12-03T03:20:42.559Z,14.65
2022-12-03T03:23:12.088Z,13.65
2022-12-03T03:25:40.819Z,12.98
2022-12-03T03:28:07.987Z,15.50
2022-12-03T03:30:36.171Z,13.15
2022-12-03T03:33:02.988Z,13.63
2022-12-03T03:35:29.960Z,14.45
2022-12-03T03:37:58.702Z,13.90
2022-12-03T03:40:26.218Z,14.13
2022-12-03T03:42:53.238Z,13.02
2022-12-03T03:45:27.152Z,14.98
2022-12-03T03:47:57.370Z,13.55
2022-12-03T03:50:24.549Z,13.40
2022-12-03T03:52:51.501Z,15.45
2022-12-03T03:55:20.348Z,14.35
2022-12-03T03:57:48.246Z,13.55
2022-12-03T04:00:15.685Z,14.13
2022-12-03T04:02:42.840Z,13.63
2022-12-03T04:05:20.655Z,13.57
2022-12-03T04:07:47.511Z,12.55
2022-12-03T04:10:34.160Z,12.40
2022-12-03T04:13:01.240Z,13.88
2022-12-03T04:15:28.581Z,13.45
2022-12-03T04:18:25.151Z,13.85
2022-12-03T04:21:11.827Z,14.15
2022-12-03T04:23:38.557Z,12.93
2022-12-03T04:26:23.881Z,13.73
2022-12-03T04:28:50.628Z,12.98
2022-12-03T04:31:35.900Z,12.70
2022-12-03T04:34:21.369Z,14.18
2022-12-03T04:36:48.209Z,13.50
2022-12-03T04:39:15.063Z,13.13
2022-12-03T04:41:41.899Z,12.13
2022-12-03T04:44:27.026Z,13.43
2022-12-03T04:46:53.763Z,12.88
2022-12-03T04:49:20.557Z,13.48
2022-12-03T04:51:47.237Z,13.93
2022-12-03T04:54:14.217Z,13.15
2022-12-03T04:56:40.948Z,12.65
2022-12-03T04:59:12.705Z,13.35
2022-12-03T05:01:42.491Z,13.27
2022-12-03T05:04:09.412Z,12.73
2022-12-03T05:06:36.283Z,12.02
2022-12-03T05:09:03.352Z,12.45
2022-12-03T05:11:30.242Z,12.85
2022-12-03T05:13:57.023Z,12.55
2022-12-03T05:16:23.979Z,11.60
2022-12-03T05:18:50.812Z,12.02
2022-12-03T05:21:17.516Z,11.07
2022-12-03T05:23:44.304Z,12.02
2022-12-03T05:26:11.443Z,11.70
2022-12-03T05:28:38.184Z,11.60
2022-12-03T05:31:05.182Z,12.23
2022-12-03T05:33:32.276Z,11.50
2022-12-03T05:35:59.360Z,11.98
2022-12-03T05:38:26.142Z,11.90
2022-12-03T05:40:52.992Z,12.63
2022-12-03T05:43:19.774Z,11.55
2022-12-03T05:45:46.601Z,12.15
2022-12-03T05:48:14.935Z,11.43
2022-12-03T05:50:44.638Z,11.95
2022-12-03T05:53:12.552Z,11.23
2022-12-03T05:55:39.467Z,12.15
2022-12-03T05:58:06.655Z,12.10
2022-12-03T06:00:42.430Z,12.52
2022-12-03T06:03:10.438Z,12.10
2022-12-03T06:05:37.566Z,12.65
2022-12-03T06:08:04.532Z,11.65
2022-12-03T06:10:31.354Z,11.77
2022-12-03T06:12:58.166Z,12.20
2022-12-03T06:15:43.718Z,12.60
2022-12-03T06:18:11.231Z,12.05
2022-12-03T06:20:37.964Z,12.70
2022-12-03T06:23:04.768Z,12.27
2022-12-03T06:25:31.560Z,12.90
2022-12-03T06:27:58.287Z,11.73
2022-12-03T06:30:25.107Z,11.10
2022-12-03T06:32:51.856Z,11.07
2022-12-03T06:35:18.622Z,11.27
2022-12-03T06:37:45.517Z,12.40
2022-12-03T06:40:13.447Z,11.57
2022-12-03T06:42:40.182Z,12.38
2022-12-03T06:45:07.323Z,11.57
2022-12-03T06:47:34.074Z,12.15
2022-12-03T06:50:00.853Z,11.80
2022-12-03T06:52:28.128Z,11.77
2022-12-03T06:54:55.032Z,11.32
2022-12-03T06:57:22.028Z,10.60
2022-12-03T06:59:48.731Z,11.13
2022-12-03T07:02:15.435Z,10.63
2022-12-03T07:04:52.354Z,10.98
2022-12-03T07:07:19.153Z,11.68
2022-12-03T07:09:45.883Z,11.65
2022-12-03T07:12:12.575Z,11.65
2022-12-03T07:14:39.325Z,11.43
2022-12-03T07:17:06.041Z,11.77
2022-12-03T07:19:33.373Z,11.15
2022-12-03T07:22:05.050Z,10.25
2022-12-03T07:24:31.860Z,10.45
2022-12-03T07:26:58.586Z,10.82
2022-12-03T07:29:25.364Z,10.93
2022-12-03T07:31:52.264Z,11.27
2022-12-03T07:34:19.161Z,11.00
2022-12-03T07:36:45.938Z,10.63
2022-12-03T07:39:13.387Z,11.98
2022-12-03T07:41:40.160Z,11.55
2022-12-03T07:44:13.755Z,11.07
2022-12-03T07:46:41.790Z,11.20
2022-12-03T07:49:08.599Z,11.43
2022-12-03T07:51:35.342Z,10.85
2022-12-03T07:54:02.181Z,11.18
2022-12-03T07:56:29.016Z,10.88
2022-12-03T07:58:55.940Z,10.02
2022-12-03T08:01:24.725Z,10.95
2022-12-03T08:03:51.526Z,11.00
2022-12-03T08:06:28.669Z,11.02
2022-12-03T08:08:55.465Z,11.23
2022-12-03T08:11:22.368Z,10.82
2022-12-03T08:13:49.183Z,11.85
2022-12-03T08:16:21.370Z,11.35
2022-12-03T08:18:49.744Z,11.90
2022-12-03T08:21:18.920Z,11.20
2022-12-03T08:23:45.946Z,10.15
2022-12-03T08:26:25.057Z,11.77
2022-12-03T08:28:53.484Z,11.68
2022-12-03T08:31:32.454Z,10.88
2022-12-03T08:34:18.530Z,10.90
2022-12-03T08:36:45.929Z,10.63
2022-12-03T08:39:27.764Z,10.70
2022-12-03T08:42:18.317Z,11.43
2022-12-03T08:44:45.276Z,10.32
2022-12-03T08:47:19.992Z,11.00
2022-12-03T08:49:59.816Z,11.55
2022-12-03T08:52:34.717Z,10.73
2022-12-03T08:55:30.632Z,11.93
2022-12-03T08:57:58.668Z,10.90
2022-12-03T09:00:25.598Z,11.45
2022-12-03T09:02:55.102Z,10.60
2022-12-03T09:05:26.024Z,11.38
2022-12-03T09:07:52.773Z,11.05
2022-12-03T09:10:19.641Z,11.00
2022-12-03T09:12:46.541Z,11.13
2022-12-03T09:15:13.305Z,11.70
2022-12-03T09:17:40.139Z,11.95
2022-12-03T09:20:07.583Z,10.80
2022-12-03T09:22:34.347Z,11.27
2022-12-03T09:25:01.149Z,11.85
2022-12-03T09:27:27.945Z,12.05
2022-12-03T09:29:54.745Z,11.65
2022-12-03T09:32:21.688Z,11.73
2022-12-03T09:34:48.449Z,11.32
2022-12-03T09:37:15.194Z,11.10
2022-12-03T09:39:42.093Z,11.18
2022-12-03T09:42:09.798Z,12.65
2022-12-03T09:44:38.108Z,12.95
2022-12-03T09:47:05.590Z,12.13
2022-12-03T09:49:33.483Z,13.02
2022-12-03T09:52:02.783Z,11.77
2022-12-03T09:54:30.772Z,12.43
2022-12-03T09:57:00.075Z,13.82
2022-12-03T09:59:31.639Z,12.88
2022-12-03T10:01:59.299Z,12.73
2022-12-03T10:04:28.144Z,12.70
2022-12-03T10:06:57.393Z,11.93
2022-12-03T10:09:27.567Z,12.65
2022-12-03T10:11:56.430Z,13.07
2022-12-03T10:14:27.215Z,13.23
2022-12-03T10:16:54.231Z,13.70
2022-12-03T10:19:29.182Z,13.35
2022-12-03T10:21:55.986Z,13.95
2022-12-03T10:24:34.061Z,13.00
2022-12-03T10:27:03.153Z,13.57
2022-12-03T10:29:34.397Z,13.50
2022-12-03T10:32:06.214Z,13.38
2022-12-03T10:34:37.953Z,14.20
2022-12-03T10:37:19.163Z,14.70
2022-12-03T10:40:09.344Z,13.35
2022-12-03T10:42:40.641Z,13.00
2022-12-03T10:45:23.462Z,14.43
2022-12-03T10:48:04.473Z,13.43
2022-12-03T10:50:31.434Z,14.50
2022-12-03T10:52:58.361Z,14.10
2022-12-03T10:55:25.461Z,14.13
2022-12-03T10:57:52.258Z,14.02
2022-12-03T11:00:20.283Z,14.95
2022-12-03T11:02:54.939Z,15.93
2022-12-03T11:05:27.317Z,14.65
2022-12-03T11:07:54.602Z,14.40
2022-12-03T11:10:21.685Z,14.93
2022-12-03T11:13:25.935Z,14.43
2022-12-03T11:15:53.295Z,15.55
2022-12-03T11:18:38.641Z,16.17
2022-12-03T11:21:13.663Z,15.95
2022-12-03T11:23:46.217Z,17.95
2022-12-03T11:26:19.582Z,15.95
2022-12-03T11:28:46.713Z,17.80
2022-12-03T11:31:40.272Z,17.65
2022-12-03T11:34:22.476Z,16.50
2022-12-03T11:37:08.043Z,17.42
2022-12-03T11:40:02.026Z,17.90
2022-12-03T11:42:37.733Z,18.45
2022-12-03T11:45:04.656Z,17.42
2022-12-03T11:47:33.021Z,18.90
2022-12-03T11:50:00.302Z,19.10
2022-12-03T11:52:33.037Z,18.40
2022-12-03T11:55:13.758Z,18.85
2022-12-03T11:57:43.897Z,17.38
2022-12-03T12:00:24.493Z,19.00
2022-12-03T12:02:53.617Z,17.85
2022-12-03T12:05:30.118Z,18.08
2022-12-03T12:07:59.029Z,18.02
2022-12-03T12:10:39.057Z,17.33
2022-12-03T12:13:06.223Z,17.33
2022-12-03T12:15:51.067Z,18.95
2022-12-03T12:18:43.854Z,20.70
2022-12-03T12:21:48.252Z,19.90
2022-12-03T12:24:47.023Z,19.90
2022-12-03T12:27:17.301Z,20.60
2022-12-03T12:29:50.264Z,20.17
2022-12-03T12:32:23.723Z,19.27
2022-12-03T12:34:53.801Z,20.10
2022-12-03T12:37:22.322Z,19.67
2022-12-03T12:39:53.988Z,21.02
2022-12-03T12:42:35.982Z,20.10
2022-12-03T12:45:14.498Z,20.90
2022-12-03T12:47:49.937Z,22.42
2022-12-03T12:50:19.044Z,20.63
2022-12-03T12:53:01.293Z,21.25
2022-12-03T12:55:28.306Z,21.90
2022-12-03T12:57:59.922Z,20.30
2022-12-03T13:00:26.887Z,22.15
2022-12-03T13:03:01.177Z,21.50
2022-12-03T13:05:38.501Z,21.70
2022-12-03T13:08:42.573Z,20.70
2022-12-03T13:11:45.515Z,21.27
2022-12-03T13:14:18.995Z,21.30
2022-12-03T13:16:47.804Z,21.85
2022-12-03T13:19:39.575Z,21.98
2022-12-03T13:22:19.113Z,22.00
2022-12-03T13:24:48.044Z,22.13
2022-12-03T13:27:17.878Z,22.25
2022-12-03T13:29:46.354Z,21.95
2022-12-03T13:32:27.740Z,22.15
2022-12-03T13:35:02.217Z,23.63
2022-12-03T13:37:29.008Z,22.45
2022-12-03T13:40:05.915Z,22.55
2022-12-03T13:42:42.285Z,22.85
2022-12-03T13:45:15.155Z,23.67
2022-12-03T13:50:34.356Z,20.33
2022-12-03T13:53:03.580Z,22.87
2022-12-03T13:55:31.500Z,21.58
2022-12-03T13:57:58.825Z,22.17
2022-12-03T14:00:25.687Z,22.50
2022-12-03T14:02:52.582Z,23.73
2022-12-03T14:05:19.454Z,22.42
2022-12-03T14:07:46.230Z,23.23
2022-12-03T14:10:13.297Z,22.33
2022-12-03T14:12:40.121Z,22.77
2022-12-03T14:15:07.321Z,23.42
2022-12-03T14:17:34.084Z,22.67
2022-12-03T14:20:01.741Z,23.58
2022-12-03T14:22:29.542Z,23.83
2022-12-03T14:24:56.760Z,24.73
2022-12-03T14:27:24.720Z,22.42
2022-12-03T14:29:52.337Z,23.02
2022-12-03T14:32:19.461Z,23.60
2022-12-03T14:34:46.211Z,22.40
2022-12-03T14:37:13.106Z,24.20
2022-12-03T14:39:39.952Z,23.88
2022-12-03T14:42:16.446Z,25.10
2022-12-03T14:44:45.932Z,23.77
2022-12-03T14:47:14.346Z,23.77
2022-12-03T14:49:41.389Z,23.27
2022-12-03T14:52:12.246Z,25.23
2022-12-03T14:54:42.138Z,23.38
2022-12-03T14:57:11.402Z,23.58
2022-12-03T14:59:38.999Z,23.58
2022-12-03T15:02:05.825Z,25.23
2022-12-03T15:04:32.741Z,24.65
2022-12-03T15:06:59.694Z,24.67
2022-12-03T15:09:26.586Z,24.48
2022-12-03T15:11:53.407Z,24.73
2022-12-03T15:14:20.277Z,24.27
2022-12-03T15:16:47.147Z,22.83
2022-12-03T15:19:15.011Z,22.95
2022-12-03T15:21:41.766Z,23.55
2022-12-03T15:24:08.661Z,23.65
2022-12-03T15:26:35.452Z,23.17
2022-12-03T15:29:02.220Z,22.77
2022-12-03T15:31:29.011Z,24.27
2022-12-03T15:33:55.744Z,22.55
2022-12-03T15:36:22.458Z,22.75
2022-12-03T15:38:49.200Z,24.08
2022-12-03T15:41:23.263Z,22.38
2022-12-03T15:43:52.188Z,22.58
2022-12-03T15:46:20.253Z,22.95
2022-12-03T15:48:47.689Z,23.50
2022-12-03T15:51:14.768Z,22.90
2022-12-03T15:53:41.619Z,22.75
2022-12-03T15:56:09.112Z,22.25
2022-12-03T15:58:35.822Z,23.63
2022-12-03T16:01:02.667Z,21.55
2022-12-03T16:03:29.842Z,22.75
2022-12-03T16:05:56.915Z,22.83
2022-12-03T16:08:23.753Z,22.60
2022-12-03T16:10:50.638Z,22.50
2022-12-03T16:13:17.442Z,20.67
2022-12-03T16:15:44.961Z,22.35
2022-12-03T16:18:11.736Z,22.95
2022-12-03T16:20:38.524Z,21.63
2022-12-03T16:23:05.342Z,23.05
2022-12-03T16:25:32.209Z,21.48
2022-12-03T16:27:58.980Z,22.63
2022-12-03T16:30:25.777Z,23.35
2022-12-03T16:32:52.523Z,20.98
2022-12-03T16:35:19.297Z,22.02
2022-12-03T16:37:46.098Z,22.02
2022-12-03T16:40:13.021Z,22.30
2022-12-03T16:42:39.878Z,22.30
2022-12-03T16:45:10.169Z,22.15
2022-12-03T16:47:37.293Z,22.08
2022-12-03T16:50:07.683Z,21.65
2022-12-03T16:52:35.398Z,21.88
2022-12-03T16:55:02.306Z,21.27
2022-12-03T16:57:33.308Z,21.88
2022-12-03T17:00:00.818Z,21.48
2022-12-03T17:02:27.971Z,20.67
2022-12-03T17:04:55.007Z,20.67
2022-12-03T17:07:21.974Z,21.58
2022-12-03T17:09:49.269Z,21.38
2022-12-03T17:12:16.311Z,22.02
2022-12-03T17:14:43.193Z,21.20
2022-12-03T17:17:09.960Z,21.85
2022-12-03T17:19:36.669Z,21.85
2022-12-03T17:22:03.477Z,20.00
2022-12-03T17:24:30.242Z,21.08
2022-12-03T17:26:57.050Z,20.52
2022-12-03T17:29:23.854Z,20.45
2022-12-03T17:31:50.695Z,21.08
2022-12-03T17:34:17.595Z,19.98
2022-12-03T17:36:44.371Z,19.85
2022-12-03T17:39:11.197Z,20.85
2022-12-03T17:41:37.920Z,21.58
2022-12-03T17:44:08.995Z,18.67
2022-12-03T17:46:37.147Z,21.33
2022-12-03T17:49:04.032Z,20.40
2022-12-03T17:51:30.895Z,20.35
2022-12-03T17:53:57.687Z,20.73
2022-12-03T17:56:24.398Z,19.33
2022-12-03T17:58:51.144Z,18.73
2022-12-03T18:01:17.953Z,19.58
2022-12-03T18:03:44.839Z,19.35
2022-12-03T18:06:11.819Z,19.38
2022-12-03T18:08:38.600Z,19.23
2022-12-03T18:11:05.465Z,19.17
2022-12-03T18:13:32.198Z,17.77
2022-12-03T18:15:59.029Z,20.13
2022-12-03T18:18:25.820Z,19.55
2022-12-03T18:20:53.327Z,18.70
2022-12-03T18:23:20.419Z,19.33
2022-12-03T18:25:47.228Z,18.98
2022-12-03T18:28:14.025Z,17.67
2022-12-03T18:30:40.772Z,17.65
2022-12-03T18:33:07.527Z,18.40
2022-12-03T18:35:34.383Z,16.70
2022-12-03T18:38:01.247Z,18.05
2022-12-03T18:40:28.107Z,19.05
2022-12-03T18:42:56.024Z,17.17
2022-12-03T18:45:22.745Z,17.92
2022-12-03T18:47:49.753Z,17.83
2022-12-03T18:50:16.707Z,17.63
2022-12-03T18:52:43.451Z,17.10
2022-12-03T18:55:18.540Z,47.60
2022-12-03T18:57:45.762Z,23.42
2022-12-03T19:00:13.821Z,17.67
2022-12-03T19:05:27.887Z,16.88
2022-12-03T19:07:57.933Z,16.92
2022-12-03T19:10:25.243Z,16.65
2022-12-03T19:12:52.250Z,18.38
2022-12-03T19:15:19.171Z,17.95
2022-12-03T19:17:49.931Z,17.20
2022-12-03T19:20:16.789Z,17.88
2022-12-03T19:22:43.668Z,15.68
2022-12-03T19:25:10.539Z,18.15
2022-12-03T19:27:37.624Z,17.63
2022-12-03T19:30:05.458Z,17.17
2022-12-03T19:32:33.884Z,16.20
2022-12-03T19:35:04.970Z,17.50
2022-12-03T19:37:33.676Z,16.90
2022-12-03T19:40:01.105Z,17.55
2022-12-03T19:42:28.096Z,17.15
2022-12-03T19:44:54.930Z,16.27
2022-12-03T19:47:24.571Z,16.83
2022-12-03T19:49:53.274Z,17.27
2022-12-03T19:52:22.809Z,17.42
2022-12-03T19:54:49.571Z,16.35
2022-12-03T19:57:22.847Z,17.60
2022-12-03T19:59:50.265Z,17.02
2022-12-03T20:02:17.273Z,17.25
2022-12-03T20:04:44.195Z,15.75
2022-12-03T20:07:11.172Z,16.95
2022-12-03T20:09:37.980Z,17.20
2022-12-03T20:12:04.868Z,16.60
2022-12-03T20:14:31.725Z,18.05
2022-12-03T20:16:58.571Z,17.35
2022-12-03T20:19:25.392Z,16.90
2022-12-03T20:21:52.133Z,16.50
2022-12-03T20:24:19.652Z,17.77
2022-12-03T20:26:46.373Z,18.92
2022-12-03T20:29:13.406Z,18.15
2022-12-03T20:31:40.699Z,17.20
2022-12-03T20:34:07.610Z,18.15
2022-12-03T20:36:34.558Z,16.80
2022-12-03T20:39:04.171Z,18.60
2022-12-03T20:41:31.139Z,18.98
2022-12-03T20:43:58.140Z,18.30
2022-12-03T20:46:31.141Z,16.98
2022-12-03T20:48:58.973Z,18.20
2022-12-03T20:51:29.832Z,17.27
2022-12-03T20:53:58.268Z,18.95
2022-12-03T20:56:28.295Z,18.50
2022-12-03T20:58:55.264Z,19.58
2022-12-03T21:01:26.768Z,17.85
2022-12-03T21:03:55.807Z,18.42
2022-12-03T21:06:25.103Z,20.10
2022-12-03T21:08:56.645Z,20.23
2022-12-03T21:11:26.520Z,19.13
2022-12-03T21:13:54.541Z,19.38
2022-12-03T21:16:39.790Z,19.17
2022-12-03T21:19:11.315Z,18.85
2022-12-03T21:21:38.115Z,20.17
2022-12-03T21:24:05.109Z,20.77
2022-12-03T21:26:32.637Z,18.52
2022-12-03T21:28:59.509Z,20.33
2022-12-03T21:31:27.202Z,20.30
2022-12-03T21:33:54.987Z,19.25
2022-12-03T21:36:22.588Z,20.27
2022-12-03T21:38:49.640Z,21.60
2022-12-03T21:41:16.485Z,20.20
2022-12-03T21:43:44.503Z,19.95
2022-12-03T21:47:10.547Z,21.30
2022-12-03T21:49:04.159Z,19.80
2022-12-03T21:51:31.076Z,21.75
2022-12-03T21:53:57.883Z,20.35
2022-12-03T21:56:24.709Z,21.63
2022-12-03T21:58:51.544Z,20.73
2022-12-03T22:01:21.392Z,20.17
2022-12-03T22:03:48.759Z,20.60
2022-12-03T22:06:16.137Z,21.55
2022-12-03T22:08:43.619Z,21.00
2022-12-03T22:11:30.564Z,22.17
2022-12-03T22:13:57.595Z,21.10
2022-12-03T22:16:24.402Z,20.08
2022-12-03T22:18:51.175Z,21.45
2022-12-03T22:21:19.903Z,20.98
2022-12-03T22:23:46.850Z,20.35
2022-12-03T22:26:16.395Z,20.63
2022-12-03T22:28:44.633Z,21.48
2022-12-03T22:31:12.880Z,20.98
2022-12-03T22:33:40.149Z,21.60
2022-12-03T22:36:20.895Z,19.95
2022-12-03T22:38:49.388Z,20.60
2022-12-03T22:41:16.897Z,26.40
2022-12-03T22:43:44.801Z,20.83
2022-12-03T22:46:14.542Z,19.73
2022-12-03T22:48:43.189Z,21.52
2022-12-03T22:51:18.446Z,21.75
2022-12-03T22:53:45.316Z,20.58
2022-12-03T22:56:12.453Z,21.95
2022-12-03T22:58:40.093Z,22.23
2022-12-03T23:01:07.642Z,20.80
2022-12-03T23:03:34.590Z,21.33
2022-12-03T23:06:01.342Z,21.15
2022-12-03T23:08:28.153Z,21.13
2022-12-03T23:11:00.196Z,22.92
2022-12-03T23:13:27.038Z,21.80
2022-12-03T23:15:53.842Z,22.80
2022-12-03T23:18:20.878Z,21.05
2022-12-03T23:20:50.970Z,22.60
2022-12-03T23:23:19.762Z,22.27
2022-12-03T23:26:06.452Z,22.23
2022-12-03T23:28:34.785Z,21.02
2022-12-03T23:31:01.684Z,21.92
2022-12-03T23:33:28.925Z,20.90
2022-12-03T23:35:55.694Z,22.42
2022-12-03T23:38:22.715Z,22.58
2022-12-03T23:40:49.615Z,21.55
2022-12-03T23:43:16.591Z,20.60
2022-12-03T23:45:43.350Z,21.65
2022-12-03T23:48:10.380Z,21.17
2022-12-03T23:50:41.311Z,21.02
2022-12-03T23:53:08.254Z,19.38
2022-12-03T23:55:38.228Z,20.13
2022-12-03T23:58:05.008Z,19.90
